Time;durP1;ratioP1;P1;durP2;ratioP2;P2;SDS_P1;SDS_P2;PMS_P1;PMS_P2;Temp;Humidity;BMP_temperature;BMP_pressure;BME280_temperature;BME280_humidity;BME280_pressure;Samples;Min_cycle;Max_cycle;Signal;HPM_P1;HPM_P2
2023/12/10 00:02:03;;;;;;;21.13;9.57;;;;;;;;;;6279712;22;20166;-90
2023/12/10 00:04:40;;;;;;;24.60;11.90;;;;;;;;;;6279732;22;20645;-89
2023/12/10 00:07:22;;;;;;;17.80;10.43;;;;;;;;;;6278663;22;20189;-89
2023/12/10 00:09:58;;;;;;;22.67;10.50;;;;;;;;;;6278747;22;20177;-90
2023/12/10 00:12:30;;;;;;;22.40;10.77;;;;;;;;;;6277360;22;20261;-91
2023/12/10 00:15:03;;;;;;;22.83;10.50;;;;;;;;;;6277443;22;20166;-91
2023/12/10 00:17:35;;;;;;;18.97;9.93;;;;;;;;;;6277215;22;20223;-90
2023/12/10 00:20:03;;;;;;;23.17;10.53;;;;;;;;;;6277949;22;20177;-90
2023/12/10 00:22:32;;;;;;;22.23;12.27;;;;;;;;;;6277454;22;20166;-90
2023/12/10 00:25:04;;;;;;;21.20;9.83;;;;;;;;;;6276738;22;20202;-89
2023/12/10 00:27:33;;;;;;;19.23;9.60;;;;;;;;;;6276761;22;20185;-90
2023/12/10 00:30:02;;;;;;;20.23;10.30;;;;;;;;;;6276171;22;20165;-90
2023/12/10 00:32:33;;;;;;;19.87;11.57;;;;;;;;;;6276614;22;20568;-90
2023/12/10 00:35:01;;;;;;;23.77;10.80;;;;;;;;;;6277330;22;20166;-90
2023/12/10 00:37:29;;;;;;;23.70;10.80;;;;;;;;;;6277588;22;20631;-90
2023/12/10 00:40:10;;;;;;;21.87;9.73;;;;;;;;;;6277347;22;20165;-90
2023/12/10 00:42:39;;;;;;;28.93;11.73;;;;;;;;;;6276989;22;20238;-91
2023/12/10 00:45:09;;;;;;;20.23;11.03;;;;;;;;;;6278174;22;20192;-90
2023/12/10 00:47:37;;;;;;;27.80;10.83;;;;;;;;;;6278308;22;20346;-90
2023/12/10 00:50:05;;;;;;;19.83;10.33;;;;;;;;;;6278014;22;20631;-90
2023/12/10 00:52:33;;;;;;;22.47;10.50;;;;;;;;;;6279208;22;20209;-90
2023/12/10 00:55:03;;;;;;;23.73;10.43;;;;;;;;;;6278884;22;20635;-90
2023/12/10 00:57:34;;;;;;;29.60;11.13;;;;;;;;;;6283417;22;20166;-90
2023/12/10 01:00:04;;;;;;;23.80;11.03;;;;;;;;;;6284997;22;20261;-91
2023/12/10 01:02:34;;;;;;;19.37;9.87;;;;;;;;;;6279782;22;20166;-92
2023/12/10 01:05:04;;;;;;;15.37;7.97;;;;;;;;;;6277885;22;20193;-93
2023/12/10 01:07:35;;;;;;;20.23;10.33;;;;;;;;;;6278434;22;20170;-93
2023/12/10 01:10:05;;;;;;;22.70;9.17;;;;;;;;;;6277945;22;20189;-92
2023/12/10 01:12:36;;;;;;;19.13;8.77;;;;;;;;;;6277592;22;20198;-91
2023/12/10 01:15:05;;;;;;;15.50;9.43;;;;;;;;;;6278150;22;20162;-91
2023/12/10 01:17:36;;;;;;;22.87;9.17;;;;;;;;;;6278391;22;20470;-92
2023/12/10 01:20:05;;;;;;;18.07;8.13;;;;;;;;;;6276292;22;20177;-92
2023/12/10 01:22:33;;;;;;;17.80;9.23;;;;;;;;;;6276510;22;20227;-91
2023/12/10 01:25:02;;;;;;;26.13;10.97;;;;;;;;;;6276596;22;20217;-91
2023/12/10 01:27:31;;;;;;;18.17;10.13;;;;;;;;;;6276519;22;20181;-92
2023/12/10 01:29:59;;;;;;;22.07;8.40;;;;;;;;;;6277146;22;20435;-92
2023/12/10 01:32:27;;;;;;;15.27;8.90;;;;;;;;;;6276440;22;20166;-91
2023/12/10 01:34:55;;;;;;;12.83;8.43;;;;;;;;;;6276486;22;20162;-92
2023/12/10 01:37:22;;;;;;;15.53;8.37;;;;;;;;;;6276869;22;20701;-91
2023/12/10 01:39:50;;;;;;;16.73;9.23;;;;;;;;;;6277001;22;20192;-92
2023/12/10 01:42:18;;;;;;;26.27;10.97;;;;;;;;;;6277103;22;20176;-91
2023/12/10 01:44:47;;;;;;;21.03;9.53;;;;;;;;;;6277914;22;20189;-91
2023/12/10 01:47:17;;;;;;;15.63;9.27;;;;;;;;;;6277789;22;20669;-91
2023/12/10 01:49:45;;;;;;;19.73;8.30;;;;;;;;;;6276975;22;20523;-91
2023/12/10 01:52:13;;;;;;;25.80;11.47;;;;;;;;;;6277183;22;20258;-91
2023/12/10 01:54:41;;;;;;;18.13;9.33;;;;;;;;;;6277198;22;20666;-91
2023/12/10 01:57:08;;;;;;;16.43;9.20;;;;;;;;;;6278063;22;20236;-91
2023/12/10 01:59:37;;;;;;;24.37;10.10;;;;;;;;;;6277264;22;20205;-91
2023/12/10 02:02:07;;;;;;;17.37;8.70;;;;;;;;;;6276977;22;20219;-92
2023/12/10 02:04:35;;;;;;;15.63;8.70;;;;;;;;;;6277347;22;20174;-92
2023/12/10 02:07:02;;;;;;;21.13;8.93;;;;;;;;;;6277685;22;20242;-91
2023/12/10 02:09:30;;;;;;;18.60;9.53;;;;;;;;;;6277778;22;20166;-92
2023/12/10 02:12:00;;;;;;;15.30;8.27;;;;;;;;;;6277089;22;20174;-91
2023/12/10 02:14:30;;;;;;;26.00;8.30;;;;;;;;;;6275648;22;20200;-91
2023/12/10 02:16:58;;;;;;;23.67;11.63;;;;;;;;;;6276189;22;20192;-91
2023/12/10 02:19:28;;;;;;;32.60;11.40;;;;;;;;;;6277260;22;20248;-91
2023/12/10 02:21:58;;;;;;;22.47;10.17;;;;;;;;;;6278175;22;20166;-91
2023/12/10 02:24:31;;;;;;;18.87;10.57;;;;;;;;;;6277151;22;20205;-92
2023/12/10 02:27:02;;;;;;;18.07;8.73;;;;;;;;;;6276083;22;20599;-91
2023/12/10 02:29:30;;;;;;;21.97;9.13;;;;;;;;;;6277026;22;20166;-90
2023/12/10 02:31:58;;;;;;;15.23;8.20;;;;;;;;;;6277496;22;20202;-90
2023/12/10 02:34:27;;;;;;;16.37;8.13;;;;;;;;;;6276638;22;20194;-90
2023/12/10 02:36:55;;;;;;;21.00;10.00;;;;;;;;;;6282294;22;20166;-90
2023/12/10 02:39:24;;;;;;;21.80;7.97;;;;;;;;;;6282756;22;20615;-90
2023/12/10 02:41:53;;;;;;;21.73;9.17;;;;;;;;;;6280724;22;20161;-91
2023/12/10 02:44:23;;;;;;;18.63;9.50;;;;;;;;;;6284301;22;20162;-90
2023/12/10 02:46:51;;;;;;;22.03;9.97;;;;;;;;;;6288801;22;20166;-90
2023/12/10 02:49:25;;;;;;;20.03;10.40;;;;;;;;;;6286685;22;20162;-89
2023/12/10 02:51:55;;;;;;;25.10;10.10;;;;;;;;;;6290841;22;20227;-89
2023/12/10 02:54:24;;;;;;;20.60;9.23;;;;;;;;;;6293306;22;20197;-90
2023/12/10 02:56:51;;;;;;;14.97;9.17;;;;;;;;;;6294546;22;20188;-89
2023/12/10 02:59:19;;;;;;;16.83;9.37;;;;;;;;;;6293563;22;20188;-89
2023/12/10 03:01:48;;;;;;;24.50;9.07;;;;;;;;;;6293553;22;20177;-91
2023/12/10 03:04:17;;;;;;;22.47;10.63;;;;;;;;;;6288758;22;20167;-92
2023/12/10 03:06:45;;;;;;;28.77;11.23;;;;;;;;;;6287657;22;20173;-91
2023/12/10 03:09:17;;;;;;;25.37;12.30;;;;;;;;;;6287880;22;20196;-90
2023/12/10 03:11:47;;;;;;;18.10;9.07;;;;;;;;;;6287718;22;20226;-90
2023/12/10 03:14:15;;;;;;;16.57;8.90;;;;;;;;;;6281931;22;20361;-89
2023/12/10 03:16:48;;;;;;;21.30;10.47;;;;;;;;;;6281497;22;20162;-89
2023/12/10 03:19:19;;;;;;;20.77;9.17;;;;;;;;;;6279183;22;20162;-91
2023/12/10 03:21:47;;;;;;;27.07;9.70;;;;;;;;;;6279692;22;20162;-91
2023/12/10 03:24:15;;;;;;;19.10;9.07;;;;;;;;;;6279697;22;20286;-91
2023/12/10 03:26:45;;;;;;;14.37;7.30;;;;;;;;;;6281793;22;20600;-90
2023/12/10 03:29:13;;;;;;;15.73;7.87;;;;;;;;;;6295235;22;20172;-91
2023/12/10 03:31:42;;;;;;;16.80;8.67;;;;;;;;;;6296444;22;20166;-89
2023/12/10 03:34:10;;;;;;;15.37;7.43;;;;;;;;;;6291811;22;20193;-91
2023/12/10 03:36:40;;;;;;;21.07;10.33;;;;;;;;;;6287670;22;20170;-91
2023/12/10 03:39:08;;;;;;;20.03;8.87;;;;;;;;;;6277841;22;20166;-91
2023/12/10 03:41:38;;;;;;;25.93;9.20;;;;;;;;;;6278670;22;20166;-91
2023/12/10 03:44:06;;;;;;;23.53;9.50;;;;;;;;;;6278378;22;20166;-90
2023/12/10 03:46:38;;;;;;;20.07;8.17;;;;;;;;;;6278425;22;20591;-90
2023/12/10 03:49:08;;;;;;;18.90;9.23;;;;;;;;;;6278060;22;20166;-91
2023/12/10 03:51:40;;;;;;;17.63;7.77;;;;;;;;;;6277416;22;20177;-89
2023/12/10 03:54:15;;;;;;;17.37;8.63;;;;;;;;;;6270877;22;20209;-91
2023/12/10 03:56:43;;;;;;;18.80;9.33;;;;;;;;;;6277354;22;20181;-90
2023/12/10 03:59:11;;;;;;;21.30;9.23;;;;;;;;;;6277521;22;20170;-91
2023/12/10 04:01:42;;;;;;;19.70;9.03;;;;;;;;;;6277975;22;20173;-91
2023/12/10 04:04:14;;;;;;;22.33;9.90;;;;;;;;;;6278164;22;20204;-92
2023/12/10 04:06:44;;;;;;;24.53;9.37;;;;;;;;;;6277384;22;20162;-92
2023/12/10 04:09:14;;;;;;;18.00;6.93;;;;;;;;;;6277742;22;20186;-92
2023/12/10 04:11:44;;;;;;;22.47;10.00;;;;;;;;;;6277038;22;20204;-90
2023/12/10 04:14:11;;;;;;;13.63;7.80;;;;;;;;;;6277878;22;20230;-92
2023/12/10 04:16:39;;;;;;;24.30;10.20;;;;;;;;;;6277622;22;20179;-91
2023/12/10 04:19:13;;;;;;;17.53;7.93;;;;;;;;;;6277945;22;20608;-91
2023/12/10 04:21:44;;;;;;;23.57;9.73;;;;;;;;;;6278107;22;20192;-91
2023/12/10 04:24:15;;;;;;;19.73;9.50;;;;;;;;;;6278521;22;20205;-88
2023/12/10 04:26:43;;;;;;;16.67;9.33;;;;;;;;;;6277254;22;20529;-89
2023/12/10 04:29:15;;;;;;;25.77;11.50;;;;;;;;;;6276697;22;20162;-92
2023/12/10 04:31:42;;;;;;;23.70;9.63;;;;;;;;;;6276387;22;20165;-91
2023/12/10 04:34:10;;;;;;;15.93;8.97;;;;;;;;;;6275842;22;20204;-91
2023/12/10 04:36:37;;;;;;;25.37;8.27;;;;;;;;;;6281010;22;20162;-91
2023/12/10 04:39:05;;;;;;;9.83;6.87;;;;;;;;;;6282642;22;20166;-91
2023/12/10 04:41:38;;;;;;;22.13;9.10;;;;;;;;;;6283952;22;20163;-92
2023/12/10 04:44:14;;;;;;;25.73;9.07;;;;;;;;;;6283617;22;20241;-91
2023/12/10 04:46:43;;;;;;;22.80;10.77;;;;;;;;;;6284715;22;20157;-90
2023/12/10 04:49:19;;;;;;;21.53;10.03;;;;;;;;;;6282186;22;20166;-90
2023/12/10 04:51:47;;;;;;;20.77;9.53;;;;;;;;;;6281974;22;20185;-92
2023/12/10 04:54:16;;;;;;;23.03;11.67;;;;;;;;;;6278473;22;20315;-92
2023/12/10 04:56:45;;;;;;;19.13;10.57;;;;;;;;;;6278148;22;20166;-92
2023/12/10 04:59:15;;;;;;;22.50;9.37;;;;;;;;;;6278468;22;20185;-91
2023/12/10 05:01:44;;;;;;;14.90;8.27;;;;;;;;;;6277837;22;20249;-90
2023/12/10 05:04:11;;;;;;;16.97;8.43;;;;;;;;;;6277483;22;20166;-91
2023/12/10 05:06:39;;;;;;;14.77;8.70;;;;;;;;;;6277849;22;20261;-90
2023/12/10 05:09:11;;;;;;;17.20;9.60;;;;;;;;;;6278536;22;20249;-90
2023/12/10 05:11:42;;;;;;;17.77;8.17;;;;;;;;;;6282410;22;20169;-91
2023/12/10 05:14:13;;;;;;;14.20;7.40;;;;;;;;;;6282374;22;20730;-90
2023/12/10 05:16:48;;;;;;;15.63;7.80;;;;;;;;;;6277462;22;20170;-91
2023/12/10 05:19:18;;;;;;;21.07;9.27;;;;;;;;;;6277334;22;20173;-91
2023/12/10 05:21:47;;;;;;;20.27;8.20;;;;;;;;;;6276318;22;20237;-91
2023/12/10 05:24:18;;;;;;;21.57;9.27;;;;;;;;;;6276564;22;20197;-90
2023/12/10 05:26:45;;;;;;;15.13;8.47;;;;;;;;;;6277107;22;20631;-90
2023/12/10 05:29:16;;;;;;;18.63;8.80;;;;;;;;;;6276899;22;20242;-91
2023/12/10 05:31:46;;;;;;;22.43;11.10;;;;;;;;;;6277399;22;20166;-90
2023/12/10 05:34:15;;;;;;;23.10;9.40;;;;;;;;;;6277288;22;20274;-89
2023/12/10 05:36:45;;;;;;;24.77;10.33;;;;;;;;;;6276158;22;20177;-90
2023/12/10 05:39:13;;;;;;;14.13;8.30;;;;;;;;;;6276918;22;20647;-91
2023/12/10 05:41:42;;;;;;;15.93;9.00;;;;;;;;;;6277230;22;20181;-90
2023/12/10 05:44:21;;;;;;;14.63;8.80;;;;;;;;;;6277077;22;20164;-92
2023/12/10 05:46:49;;;;;;;18.13;8.07;;;;;;;;;;6276089;22;20170;-92
2023/12/10 05:49:22;;;;;;;13.20;7.83;;;;;;;;;;6275868;22;20170;-92
2023/12/10 05:51:53;;;;;;;14.70;9.27;;;;;;;;;;6276177;22;20177;-91
2023/12/10 05:54:22;;;;;;;14.17;6.90;;;;;;;;;;6275999;22;20596;-92
2023/12/10 05:56:54;;;;;;;21.17;8.83;;;;;;;;;;6275823;22;20169;-90
2023/12/10 05:59:28;;;;;;;18.77;7.10;;;;;;;;;;6276655;22;20602;-91
2023/12/10 06:01:59;;;;;;;16.20;7.43;;;;;;;;;;6276870;22;20177;-91
2023/12/10 06:04:28;;;;;;;11.07;7.40;;;;;;;;;;6276353;22;20185;-91
2023/12/10 06:06:56;;;;;;;15.20;7.97;;;;;;;;;;6274958;22;20552;-91
2023/12/10 06:09:29;;;;;;;9.73;6.27;;;;;;;;;;6276013;22;20226;-90
2023/12/10 06:11:58;;;;;;;16.50;9.03;;;;;;;;;;6276197;22;20177;-91
2023/12/10 06:14:36;;;;;;;16.57;8.93;;;;;;;;;;6275914;22;20209;-90
2023/12/10 06:17:04;;;;;;;12.37;6.93;;;;;;;;;;6276336;22;20252;-90
2023/12/10 06:19:32;;;;;;;12.53;7.57;;;;;;;;;;6275042;22;20166;-90
2023/12/10 06:22:02;;;;;;;11.97;7.33;;;;;;;;;;6275452;22;20166;-91
2023/12/10 06:24:34;;;;;;;10.77;6.87;;;;;;;;;;6275846;22;20594;-91
2023/12/10 06:27:03;;;;;;;12.73;7.60;;;;;;;;;;6276315;22;20469;-90
2023/12/10 06:29:32;;;;;;;12.10;6.43;;;;;;;;;;6276569;22;20599;-91
2023/12/10 06:32:02;;;;;;;15.87;7.87;;;;;;;;;;6276249;22;20162;-91
2023/12/10 06:34:32;;;;;;;20.53;7.43;;;;;;;;;;6276624;22;20599;-91
2023/12/10 06:37:00;;;;;;;14.80;6.57;;;;;;;;;;6275862;22;20158;-91
2023/12/10 06:39:31;;;;;;;13.23;7.47;;;;;;;;;;6276786;22;20689;-91
2023/12/10 06:42:03;;;;;;;14.03;7.93;;;;;;;;;;6276689;22;20213;-91
2023/12/10 06:44:41;;;;;;;16.97;8.40;;;;;;;;;;6276860;22;20188;-90
2023/12/10 06:47:12;;;;;;;13.13;7.60;;;;;;;;;;6276454;22;20519;-91
2023/12/10 06:50:10;;;;;;;17.60;7.90;;;;;;;;;;6277063;22;20170;-91
2023/12/10 06:52:43;;;;;;;17.07;7.10;;;;;;;;;;6277061;22;20169;-90
2023/12/10 06:55:15;;;;;;;18.90;10.13;;;;;;;;;;6277540;22;20245;-90
2023/12/10 06:57:53;;;;;;;17.63;9.37;;;;;;;;;;6277165;22;20165;-91
2023/12/10 07:00:28;;;;;;;16.00;9.40;;;;;;;;;;6277583;22;20193;-91
2023/12/10 07:02:55;;;;;;;26.80;9.90;;;;;;;;;;6277916;22;20173;-91
2023/12/10 07:05:26;;;;;;;25.47;10.93;;;;;;;;;;6277598;22;20166;-91
2023/12/10 07:07:55;;;;;;;19.33;9.30;;;;;;;;;;6276318;22;20172;-91
2023/12/10 07:10:23;;;;;;;17.83;10.47;;;;;;;;;;6276970;22;20245;-90
2023/12/10 07:12:54;;;;;;;30.63;12.47;;;;;;;;;;6277070;22;20162;-91
2023/12/10 07:15:26;;;;;;;24.70;10.97;;;;;;;;;;6276794;22;20220;-90
2023/12/10 07:18:03;;;;;;;19.83;10.23;;;;;;;;;;6276624;22;20173;-91
2023/12/10 07:20:32;;;;;;;20.07;11.17;;;;;;;;;;6276241;22;20162;-92
2023/12/10 07:23:00;;;;;;;18.97;9.87;;;;;;;;;;6276779;22;20657;-91
2023/12/10 07:25:29;;;;;;;20.20;10.00;;;;;;;;;;6275344;22;20552;-92
2023/12/10 07:28:02;;;;;;;18.10;10.43;;;;;;;;;;6276136;22;20166;-90
2023/12/10 07:30:32;;;;;;;18.80;10.63;;;;;;;;;;6275692;22;20565;-90
2023/12/10 07:33:05;;;;;;;18.03;9.40;;;;;;;;;;6275771;22;20227;-91
2023/12/10 07:35:39;;;;;;;19.87;10.00;;;;;;;;;;6275831;22;20194;-91
2023/12/10 07:38:17;;;;;;;17.17;9.63;;;;;;;;;;6277083;22;20629;-92
2023/12/10 07:40:47;;;;;;;19.37;11.07;;;;;;;;;;6279036;22;20172;-91
2023/12/10 07:43:29;;;;;;;;;;;;;;;;;;;;;
2023/12/10 07:46:01;;;;;;;23.00;12.03;;;;;;;;;;6273765;22;20194;-91
2023/12/10 07:48:37;;;;;;;19.43;11.43;;;;;;;;;;6277326;22;20194;-92
2023/12/10 07:51:06;;;;;;;16.17;9.73;;;;;;;;;;6274107;22;20307;-90
2023/12/10 07:53:37;;;;;;;15.73;9.17;;;;;;;;;;6275079;22;20251;-93
2023/12/10 07:56:10;;;;;;;16.87;8.73;;;;;;;;;;6273987;22;20212;-91
2023/12/10 07:58:38;;;;;;;14.07;8.77;;;;;;;;;;6276083;22;20485;-90
2023/12/10 08:01:18;;;;;;;18.10;9.50;;;;;;;;;;6273115;22;20259;-89
2023/12/10 08:03:47;;;;;;;13.37;8.07;;;;;;;;;;6275695;22;20212;-92
2023/12/10 08:06:25;;;;;;;17.97;8.97;;;;;;;;;;6276140;22;20190;-92
2023/12/10 08:08:53;;;;;;;19.67;10.13;;;;;;;;;;6277057;22;20265;-93
2023/12/10 08:11:31;;;;;;;13.03;8.93;;;;;;;;;;6269610;22;20190;-93
2023/12/10 08:14:00;;;;;;;14.20;8.60;;;;;;;;;;6276116;22;20220;-91
2023/12/10 08:16:30;;;;;;;21.23;9.07;;;;;;;;;;6281610;22;20198;-90
2023/12/10 08:19:02;;;;;;;23.40;10.37;;;;;;;;;;6278811;22;20655;-93
2023/12/10 08:21:29;;;;;;;19.73;9.47;;;;;;;;;;6277416;22;20224;-92
2023/12/10 08:23:58;;;;;;;20.27;9.47;;;;;;;;;;6278248;22;20186;-91
2023/12/10 08:26:26;;;;;;;15.47;8.77;;;;;;;;;;6277135;22;20198;-92
2023/12/10 08:28:53;;;;;;;15.60;9.67;;;;;;;;;;6279421;22;20647;-92
2023/12/10 08:31:25;;;;;;;17.30;9.63;;;;;;;;;;6277271;22;20277;-92
2023/12/10 08:34:10;;;;;;;15.53;8.23;;;;;;;;;;6279459;22;20190;-91
2023/12/10 08:37:05;;;;;;;18.17;8.83;;;;;;;;;;6279018;22;20205;-90
2023/12/10 08:39:34;;;;;;;16.93;9.57;;;;;;;;;;6286973;22;20185;-91
2023/12/10 08:42:07;;;;;;;16.87;9.33;;;;;;;;;;6278529;22;20200;-91
2023/12/10 08:44:42;;;;;;;17.70;9.90;;;;;;;;;;6278266;22;20193;-91
2023/12/10 08:47:12;;;;;;;26.33;9.63;;;;;;;;;;6279950;22;20197;-91
2023/12/10 08:49:50;;;;;;;21.83;10.07;;;;;;;;;;6279364;22;20511;-90
2023/12/10 08:52:27;;;;;;;21.10;10.70;;;;;;;;;;6276010;22;20189;-90
2023/12/10 08:54:59;;;;;;;16.53;9.27;;;;;;;;;;6281158;22;20214;-90
2023/12/10 08:57:35;;;;;;;22.90;10.57;;;;;;;;;;6276701;22;20666;-92
2023/12/10 09:00:21;;;;;;;22.13;10.60;;;;;;;;;;6278457;22;20230;-91
2023/12/10 09:18:20;;;;;;;23.03;10.97;;;;;;;;;;6265524;22;20198;-91
2023/12/10 09:21:12;;;;;;;18.90;9.03;;;;;;;;;;6277054;22;20194;-91
2023/12/10 09:24:11;;;;;;;28.70;12.03;;;;;;;;;;6242321;22;20229;-90
2023/12/10 09:26:46;;;;;;;18.53;10.37;;;;;;;;;;6250280;23;20225;-91
2023/12/10 09:29:38;;;;;;;23.20;11.40;;;;;;;;;;6245205;22;20198;-90
2023/12/10 09:35:04;;;;;;;18.33;10.93;;;;;;;;;;6217539;22;20222;-91
2023/12/10 09:40:38;;;;;;;20.80;10.97;;;;;;;;;;6240584;22;20194;-91
2023/12/10 09:43:32;;;;;;;25.70;13.20;;;;;;;;;;6242615;23;20190;-90
2023/12/10 09:46:34;;;;;;;;;;;;;;;;;;;;;
2023/12/10 09:49:11;;;;;;;16.63;9.60;;;;;;;;;;6242215;23;20191;-89
2023/12/10 09:51:40;;;;;;;23.80;10.00;;;;;;;;;;6242961;23;20585;-90
2023/12/10 09:56:54;;;;;;;25.43;11.57;;;;;;;;;;6238242;23;20210;-92
2023/12/10 09:59:40;;;;;;;21.13;10.67;;;;;;;;;;6244256;23;20209;-90
2023/12/10 10:02:15;;;;;;;20.97;9.83;;;;;;;;;;6244167;23;20194;-92
2023/12/10 10:04:45;;;;;;;14.57;8.70;;;;;;;;;;6245402;23;20189;-91
2023/12/10 10:07:16;;;;;;;21.60;10.47;;;;;;;;;;6248112;23;20221;-90
2023/12/10 10:09:46;;;;;;;19.03;10.30;;;;;;;;;;6245495;23;20225;-90
2023/12/10 10:12:18;;;;;;;15.20;8.47;;;;;;;;;;6244002;23;20195;-91
2023/12/10 10:15:03;;;;;;;19.77;11.80;;;;;;;;;;6240849;22;20255;-90
2023/12/10 10:17:33;;;;;;;28.70;13.93;;;;;;;;;;6241588;23;20268;-91
2023/12/10 10:20:14;;;;;;;24.90;13.20;;;;;;;;;;6242305;23;20225;-92
2023/12/10 10:22:54;;;;;;;19.87;11.77;;;;;;;;;;6243303;23;20193;-91
2023/12/10 10:25:26;;;;;;;22.63;10.77;;;;;;;;;;6255433;22;20229;-89
2023/12/10 10:27:56;;;;;;;32.60;15.57;;;;;;;;;;6270953;22;20224;-89
2023/12/10 10:30:27;;;;;;;33.20;13.77;;;;;;;;;;6271949;22;20197;-88
2023/12/10 10:32:57;;;;;;;28.27;15.17;;;;;;;;;;6274429;22;20194;-86
2023/12/10 10:35:27;;;;;;;28.17;14.90;;;;;;;;;;6272640;22;20197;-88
2023/12/10 10:37:59;;;;;;;27.13;13.93;;;;;;;;;;6270597;22;20197;-89
2023/12/10 10:40:41;;;;;;;37.83;14.63;;;;;;;;;;6272346;22;20189;-88
2023/12/10 10:43:20;;;;;;;25.90;13.93;;;;;;;;;;6269517;22;20270;-89
2023/12/10 10:45:56;;;;;;;24.43;12.87;;;;;;;;;;6271668;22;20277;-89
2023/12/10 10:48:31;;;;;;;23.07;11.63;;;;;;;;;;6267680;22;20540;-88
2023/12/10 10:51:03;;;;;;;27.33;12.07;;;;;;;;;;6271824;22;20622;-88
2023/12/10 10:53:31;;;;;;;23.90;11.23;;;;;;;;;;6270245;22;20430;-89
2023/12/10 10:55:59;;;;;;;14.43;8.73;;;;;;;;;;6271392;22;20209;-88
2023/12/10 10:58:28;;;;;;;20.70;10.33;;;;;;;;;;6269388;22;20189;-88
2023/12/10 11:01:00;;;;;;;19.27;10.67;;;;;;;;;;6272823;22;20194;-89
2023/12/10 11:03:33;;;;;;;17.73;9.90;;;;;;;;;;6270382;22;20568;-90
2023/12/10 11:06:06;;;;;;;16.93;9.80;;;;;;;;;;6271387;22;20197;-89
2023/12/10 11:08:35;;;;;;;25.93;10.20;;;;;;;;;;6270333;22;20251;-89
2023/12/10 11:11:04;;;;;;;15.13;9.57;;;;;;;;;;6272596;22;20195;-88
2023/12/10 11:13:46;;;;;;;17.93;10.03;;;;;;;;;;6268377;22;20221;-88
2023/12/10 11:16:18;;;;;;;17.77;9.77;;;;;;;;;;6270809;22;20210;-88
2023/12/10 11:18:56;;;;;;;19.83;9.10;;;;;;;;;;6271629;22;20190;-88
2023/12/10 11:21:36;;;;;;;21.30;9.20;;;;;;;;;;6271453;22;20598;-88
2023/12/10 11:24:08;;;;;;;17.00;9.93;;;;;;;;;;6262814;22;20670;-88
2023/12/10 11:26:40;;;;;;;27.00;11.30;;;;;;;;;;6277261;22;20193;-88
2023/12/10 11:29:08;;;;;;;17.27;10.37;;;;;;;;;;6272559;22;20276;-89
2023/12/10 11:31:43;;;;;;;17.63;9.77;;;;;;;;;;6278181;22;20536;-88
2023/12/10 11:34:11;;;;;;;28.07;10.33;;;;;;;;;;6274480;22;20207;-88
2023/12/10 11:36:39;;;;;;;17.33;9.23;;;;;;;;;;6277430;22;20225;-89
2023/12/10 11:39:14;;;;;;;19.13;9.37;;;;;;;;;;6274977;22;20190;-88
2023/12/10 11:41:43;;;;;;;16.10;10.00;;;;;;;;;;6274680;22;20205;-90
2023/12/10 11:44:23;;;;;;;14.00;9.73;;;;;;;;;;6274780;22;20272;-89
2023/12/10 11:46:57;;;;;;;20.80;9.40;;;;;;;;;;6274267;22;20213;-90
2023/12/10 11:49:27;;;;;;;21.53;11.40;;;;;;;;;;6271147;22;20217;-91
2023/12/10 11:51:58;;;;;;;15.00;9.37;;;;;;;;;;6272318;22;20197;-89
2023/12/10 11:54:30;;;;;;;15.43;8.60;;;;;;;;;;6270382;22;20269;-90
2023/12/10 11:57:03;;;;;;;15.33;8.93;;;;;;;;;;6272407;22;20201;-88
2023/12/10 11:59:30;;;;;;;17.77;8.70;;;;;;;;;;6271509;22;20194;-89
2023/12/10 12:01:59;;;;;;;24.73;9.80;;;;;;;;;;6272329;22;20256;-88
2023/12/10 12:04:35;;;;;;;23.07;10.47;;;;;;;;;;6269974;22;20225;-89
2023/12/10 12:07:08;;;;;;;19.07;8.97;;;;;;;;;;6271956;22;20216;-88
2023/12/10 12:09:38;;;;;;;15.40;9.37;;;;;;;;;;6271800;22;20217;-88
2023/12/10 12:12:14;;;;;;;12.63;8.00;;;;;;;;;;6272191;22;20371;-87
2023/12/10 12:14:44;;;;;;;15.07;8.40;;;;;;;;;;6268359;22;20196;-88
2023/12/10 12:17:13;;;;;;;15.37;8.07;;;;;;;;;;6271283;22;20206;-88
2023/12/10 12:19:57;;;;;;;;;;;;;;;;;;;;;
2023/12/10 12:22:27;;;;;;;16.73;7.23;;;;;;;;;;6272380;22;20197;-89
2023/12/10 12:25:12;;;;;;;16.53;8.43;;;;;;;;;;6271390;22;20214;-88
2023/12/10 12:31:04;;;;;;;11.73;7.27;;;;;;;;;;6267822;22;20202;-88
2023/12/10 12:33:37;;;;;;;14.13;7.67;;;;;;;;;;6272047;22;20198;-89
2023/12/10 12:36:06;;;;;;;10.17;6.13;;;;;;;;;;6269604;22;20218;-90
2023/12/10 12:39:03;;;;;;;12.30;6.93;;;;;;;;;;6271186;22;20200;-89
2023/12/10 12:41:40;;;;;;;16.60;7.23;;;;;;;;;;6258699;22;20205;-90
2023/12/10 12:44:13;;;;;;;12.50;6.93;;;;;;;;;;6240417;22;20256;-88
2023/12/10 12:46:41;;;;;;;10.80;6.80;;;;;;;;;;6240509;22;20229;-89
2023/12/10 12:49:11;;;;;;;15.50;7.27;;;;;;;;;;6242474;22;20272;-88
2023/12/10 12:52:00;;;;;;;14.57;7.47;;;;;;;;;;6234437;22;20194;-88
2023/12/10 12:54:32;;;;;;;15.23;7.13;;;;;;;;;;6240948;22;20229;-88
2023/12/10 12:57:00;;;;;;;13.43;6.60;;;;;;;;;;6240114;22;20213;-88
2023/12/10 12:59:32;;;;;;;10.90;7.70;;;;;;;;;;6240034;22;20190;-89
2023/12/10 13:02:03;;;;;;;9.33;7.63;;;;;;;;;;6240430;22;20195;-89
2023/12/10 13:04:49;;;;;;;16.60;8.10;;;;;;;;;;6239635;22;20206;-88
2023/12/10 13:07:32;;;;;;;14.93;9.17;;;;;;;;;;6238129;22;20277;-89
2023/12/10 13:13:00;;;;;;;17.53;9.03;;;;;;;;;;6225520;22;20206;-88
2023/12/10 13:15:29;;;;;;;19.60;10.40;;;;;;;;;;6239634;22;20201;-88
2023/12/10 13:17:58;;;;;;;21.20;9.43;;;;;;;;;;6239956;22;20260;-89
2023/12/10 13:20:39;;;;;;;16.63;8.37;;;;;;;;;;6239784;22;20269;-90
2023/12/10 13:23:10;;;;;;;17.63;10.07;;;;;;;;;;6238039;22;20194;-90
2023/12/10 13:25:39;;;;;;;19.90;10.47;;;;;;;;;;6245571;23;20228;-90
2023/12/10 13:28:10;;;;;;;19.37;10.43;;;;;;;;;;6245139;22;20578;-90
2023/12/10 13:30:38;;;;;;;17.23;9.80;;;;;;;;;;6248279;23;20191;-89
2023/12/10 13:33:10;;;;;;;23.80;9.83;;;;;;;;;;6246303;22;20651;-89
2023/12/10 13:35:39;;;;;;;14.67;7.70;;;;;;;;;;6248442;22;20265;-89
2023/12/10 13:38:10;;;;;;;13.67;8.00;;;;;;;;;;6242750;22;20573;-89
2023/12/10 13:40:40;;;;;;;11.00;6.97;;;;;;;;;;6244305;22;20266;-89
2023/12/10 13:43:14;;;;;;;17.07;8.43;;;;;;;;;;6242343;22;20305;-89
2023/12/10 13:45:43;;;;;;;14.43;8.00;;;;;;;;;;6240657;22;20216;-90
2023/12/10 13:48:14;;;;;;;14.33;8.60;;;;;;;;;;6233921;22;20492;-89
2023/12/10 13:50:56;;;;;;;17.50;9.00;;;;;;;;;;6242505;22;20546;-89
2023/12/10 13:53:24;;;;;;;13.53;7.33;;;;;;;;;;6240220;22;20190;-89
2023/12/10 13:55:56;;;;;;;16.90;8.87;;;;;;;;;;6240104;22;20194;-89
2023/12/10 13:58:24;;;;;;;18.60;8.23;;;;;;;;;;6240918;22;20230;-89
2023/12/10 14:00:55;;;;;;;14.57;8.17;;;;;;;;;;6240981;22;20190;-89
2023/12/10 14:03:27;;;;;;;14.50;8.57;;;;;;;;;;6239538;22;20202;-89
2023/12/10 14:05:55;;;;;;;15.27;8.97;;;;;;;;;;6240161;22;20218;-89
2023/12/10 14:08:31;;;;;;;14.10;8.20;;;;;;;;;;6240322;22;20275;-89
2023/12/10 14:11:07;;;;;;;14.50;7.63;;;;;;;;;;6239527;22;20257;-89
2023/12/10 14:13:36;;;;;;;35.07;14.90;;;;;;;;;;6240180;22;20718;-90
2023/12/10 14:16:06;;;;;;;18.33;9.80;;;;;;;;;;6239998;22;20186;-89
2023/12/10 14:18:35;;;;;;;13.80;7.33;;;;;;;;;;6239481;22;20675;-89
2023/12/10 14:21:08;;;;;;;12.33;7.90;;;;;;;;;;6237309;22;20220;-89
2023/12/10 14:23:37;;;;;;;9.70;6.50;;;;;;;;;;6241250;22;20271;-89
2023/12/10 14:26:10;;;;;;;12.40;6.60;;;;;;;;;;6236963;22;20213;-88
2023/12/10 14:28:46;;;;;;;15.60;8.63;;;;;;;;;;6244327;22;20252;-88
2023/12/10 14:31:33;;;;;;;;;;;;;;;;;;;;;
2023/12/10 14:34:05;;;;;;;17.33;8.20;;;;;;;;;;6240394;22;20668;-90
2023/12/10 14:36:38;;;;;;;19.90;8.27;;;;;;;;;;6236584;22;20194;-88
2023/12/10 14:39:06;;;;;;;20.20;9.70;;;;;;;;;;6254876;22;20190;-88
2023/12/10 14:41:55;;;;;;;15.87;9.30;;;;;;;;;;6239290;22;20218;-89
2023/12/10 14:44:37;;;;;;;14.27;8.67;;;;;;;;;;6240977;22;20202;-87
2023/12/10 14:47:09;;;;;;;19.30;9.93;;;;;;;;;;6239635;22;20438;-88
2023/12/10 14:49:52;;;;;;;15.13;10.37;;;;;;;;;;6242824;22;20191;-88
2023/12/10 14:52:23;;;;;;;13.87;8.47;;;;;;;;;;6242648;22;20727;-88
2023/12/10 14:54:52;;;;;;;17.90;9.40;;;;;;;;;;6241046;22;20607;-88
2023/12/10 14:57:47;;;;;;;18.13;9.47;;;;;;;;;;6238905;22;20226;-87
2023/12/10 15:00:33;;;;;;;66.83;24.93;;;;;;;;;;6240848;22;20191;-87
2023/12/10 15:03:06;;;;;;;32.17;13.83;;;;;;;;;;6241307;22;20850;-87
2023/12/10 15:05:35;;;;;;;29.50;13.07;;;;;;;;;;6240780;23;20290;-86
2023/12/10 15:08:12;;;;;;;29.27;13.30;;;;;;;;;;6242805;22;20195;-87
2023/12/10 15:10:41;;;;;;;19.30;10.80;;;;;;;;;;6241408;22;20212;-87
2023/12/10 15:13:10;;;;;;;20.40;11.80;;;;;;;;;;6243832;22;20190;-88
2023/12/10 15:15:43;;;;;;;28.43;11.33;;;;;;;;;;6244019;23;20265;-88
2023/12/10 15:18:12;;;;;;;17.80;11.37;;;;;;;;;;6242309;22;20199;-88
2023/12/10 15:20:45;;;;;;;19.43;8.93;;;;;;;;;;6243186;23;20194;-88
2023/12/10 15:23:15;;;;;;;18.27;9.47;;;;;;;;;;6242161;22;20205;-87
2023/12/10 15:25:44;;;;;;;14.10;7.57;;;;;;;;;;6241996;22;20692;-88
2023/12/10 15:28:19;;;;;;;9.73;6.57;;;;;;;;;;6242697;22;20186;-87